The Villages, Florida
Current Conditions -  °F | °C
As of 6:53 PM on Friday 21 Nov 2014 (Local Time) from KLEE Reporting Station
Clear Clear  
Wind Chill: 62°   Ceiling: Unl
Heat Index: 62°   Visibility: 10mi
Dew Point: 51°   Wind: 8mph
Humidity: 67%   Direction: 30°NNE
Pressure: 30.29"   Gusts: NA
Location:  28.9417°N, 81.9658°W
Report Text: KLEE 212353Z AUTO 03007KT 10SM CLR 17/11 A3029 RMK AO2 SLP256 T01670106 10228 20167 51009
Loading
Personal Weather Stations






























Interactive Weather Map New forecast layout! Learn more

10-Day Weather Forecast

Advertisements
Track Severe Weather on mobile